createdAt,value
2022-09-21T00:00:32.449Z,4.87
2022-09-21T00:01:32.621Z,5
2022-09-21T00:02:32.887Z,5.05
2022-09-21T00:03:32.684Z,5.09
2022-09-21T00:04:32.383Z,4.98
2022-09-21T00:05:32.105Z,5.13
2022-09-21T00:06:32.355Z,5.18
2022-09-21T00:07:32.120Z,5.2
2022-09-21T00:08:32.574Z,5.16
2022-09-21T00:09:32.293Z,5.16
2022-09-21T00:10:32.540Z,5.23
2022-09-21T00:11:32.269Z,5.23
2022-09-21T00:12:32.250Z,5.24
2022-09-21T00:13:32.487Z,5.26
2022-09-21T00:14:32.219Z,5.24
2022-09-21T00:15:32.209Z,5.27
2022-09-21T00:16:32.442Z,5.3
2022-09-21T00:17:32.455Z,5.27
2022-09-21T00:18:32.622Z,5.27
2022-09-21T00:19:32.446Z,5.37
2022-09-21T00:20:32.117Z,5.36
2022-09-21T00:21:31.850Z,5.36
2022-09-21T00:22:32.086Z,5.39
2022-09-21T00:23:32.067Z,5.39
2022-09-21T00:24:32.306Z,5.42
2022-09-21T00:25:32.291Z,5.41
2022-09-21T00:26:32.273Z,5.44
2022-09-21T00:27:32.009Z,5.41
2022-09-21T00:28:31.990Z,5.36
2022-09-21T00:29:31.975Z,5.45
2022-09-21T00:30:32.210Z,5.36
2022-09-21T00:31:31.975Z,5.41
2022-09-21T00:32:32.178Z,5.36
2022-09-21T00:33:31.911Z,5.39
2022-09-21T00:34:31.947Z,5.36
2022-09-21T00:35:32.159Z,5.34
2022-09-21T00:36:31.868Z,5.34
2022-09-21T00:37:31.863Z,5.26
2022-09-21T00:38:31.581Z,5.23
2022-09-21T00:39:31.819Z,5.21
2022-09-21T00:40:32.002Z,5.23
2022-09-21T00:41:31.783Z,5.28
2022-09-21T00:42:31.764Z,5.26
2022-09-21T00:43:31.495Z,5.24
2022-09-21T00:44:31.737Z,5.2
2022-09-21T00:45:32.083Z,5.18
2022-09-21T00:46:31.954Z,5.12
2022-09-21T00:47:31.686Z,5.15
2022-09-21T00:48:31.673Z,5.13
2022-09-21T00:49:31.393Z,5.05
2022-09-21T00:50:31.947Z,5.06
2022-09-21T00:51:31.898Z,4.97
2022-09-21T00:52:31.605Z,5
2022-09-21T00:53:31.589Z,4.97
2022-09-21T00:54:31.334Z,4.98
2022-09-21T00:55:31.557Z,4.85
2022-09-21T00:56:31.538Z,4.79
2022-09-21T00:57:31.273Z,4.76
2022-09-21T00:58:31.257Z,4.72
2022-09-21T00:59:34.682Z,4.72
2022-09-21T01:00:31.477Z,4.69
2022-09-21T01:01:31.585Z,4.69
2022-09-21T01:02:31.686Z,4.69
2022-09-21T01:03:31.681Z,4.64
2022-09-21T01:04:31.420Z,4.58
2022-09-21T01:05:31.396Z,4.66
2022-09-21T01:06:31.681Z,4.65
2022-09-21T01:07:31.394Z,4.5
2022-09-21T01:08:31.093Z,4.64
2022-09-21T01:09:31.343Z,4.57
2022-09-21T01:10:31.056Z,4.56
2022-09-21T01:11:31.561Z,4.53
2022-09-21T01:12:31.537Z,4.56
2022-09-21T01:13:31.532Z,4.51
2022-09-21T01:14:31.538Z,4.53
2022-09-21T01:15:31.242Z,4.51
2022-09-21T01:16:31.419Z,4.53
2022-09-21T01:17:31.200Z,4.53
2022-09-21T01:18:31.186Z,4.5
2022-09-21T01:19:30.916Z,4.48
2022-09-21T01:20:30.906Z,4.56
2022-09-21T01:21:31.388Z,4.53
2022-09-21T01:22:31.584Z,4.53
2022-09-21T01:23:31.382Z,4.48
2022-09-21T01:24:31.347Z,4.46
2022-09-21T01:25:31.070Z,4.53
2022-09-21T01:26:31.309Z,4.47
2022-09-21T01:27:31.055Z,4.48
2022-09-21T01:28:31.021Z,4.53
2022-09-21T01:29:31.287Z,4.5
2022-09-21T01:30:30.999Z,4.48
2022-09-21T01:31:31.119Z,4.51
2022-09-21T01:32:30.705Z,4.48
2022-09-21T01:33:30.937Z,4.46
2022-09-21T01:34:30.928Z,4.54
2022-09-21T01:36:30.888Z,4.44
2022-09-21T01:37:31.127Z,4.57
2022-09-21T01:38:30.901Z,4.48
2022-09-21T01:39:31.117Z,4.56
2022-09-21T01:40:36.975Z,4.51
2022-09-21T01:41:30.807Z,4.51
2022-09-21T01:42:31.047Z,4.47
2022-09-21T01:43:30.515Z,4.51
2022-09-21T01:44:30.759Z,4.5
2022-09-21T01:45:30.859Z,4.53
2022-09-21T01:46:30.727Z,4.5
2022-09-21T01:47:30.714Z,4.54
2022-09-21T01:48:30.957Z,4.48
2022-09-21T01:49:30.673Z,4.47
2022-09-21T01:50:30.666Z,4.42
2022-09-21T01:51:30.896Z,4.36
2022-09-21T01:52:30.629Z,4.3
2022-09-21T01:53:30.364Z,4.36
2022-09-21T01:54:30.894Z,4.36
2022-09-21T01:55:30.941Z,4.3
2022-09-21T01:56:30.329Z,4.33
2022-09-21T01:57:30.556Z,4.35
2022-09-21T01:58:30.270Z,4.36
2022-09-21T01:59:30.763Z,4.29
2022-09-21T02:00:30.698Z,4.32
2022-09-21T02:01:30.477Z,4.33
2022-09-21T02:02:30.456Z,4.38
2022-09-21T02:03:30.703Z,4.28
2022-09-21T02:04:30.431Z,4.3
2022-09-21T02:05:30.411Z,4.24
2022-09-21T02:06:30.647Z,4.18
2022-09-21T02:07:30.638Z,4.28
2022-09-21T02:08:30.365Z,4.15
2022-09-21T02:09:30.094Z,4.24
2022-09-21T02:10:30.627Z,4.14
2022-09-21T02:11:30.593Z,4.1
2022-09-21T02:12:30.297Z,4.17
2022-09-21T02:13:30.533Z,4.12
2022-09-21T02:14:30.522Z,4.08
2022-09-21T02:15:30.250Z,4.1
2022-09-21T02:16:30.390Z,4.11
2022-09-21T02:17:30.222Z,4.08
2022-09-21T02:18:30.195Z,4.1
2022-09-21T02:19:30.178Z,4.15
2022-09-21T02:20:30.165Z,4.1
2022-09-21T02:21:29.891Z,4.15
2022-09-21T02:22:30.385Z,4.14
2022-09-21T02:23:30.114Z,4.1
2022-09-21T02:24:30.096Z,4.14
2022-09-21T02:25:30.077Z,4.11
2022-09-21T02:26:30.114Z,4.15
2022-09-21T02:27:30.326Z,4.11
2022-09-21T02:28:30.026Z,4.15
2022-09-21T02:29:30.273Z,4.15
2022-09-21T02:30:30.018Z,4.12
2022-09-21T02:31:30.407Z,3.99
2022-09-21T02:32:30.215Z,3.97
2022-09-21T02:33:30.199Z,4.08
2022-09-21T02:34:29.672Z,3.93
2022-09-21T02:35:30.176Z,3.94
2022-09-21T02:36:29.643Z,3.92
2022-09-21T02:37:29.887Z,3.86
2022-09-21T02:38:29.606Z,3.94
2022-09-21T02:39:30.103Z,3.89
2022-09-21T02:40:29.793Z,3.94
2022-09-21T02:41:29.558Z,3.93
2022-09-21T02:42:30.099Z,3.93
2022-09-21T02:43:29.805Z,3.99
2022-09-21T02:44:30.027Z,3.93
2022-09-21T02:45:29.488Z,3.93
2022-09-21T02:46:29.677Z,3.99
2022-09-21T02:47:29.458Z,4
2022-09-21T02:48:29.700Z,3.96
2022-09-21T02:49:29.946Z,4
2022-09-21T02:50:29.918Z,4.02
2022-09-21T02:51:29.645Z,4.04
2022-09-21T02:52:29.882Z,3.96
2022-09-21T02:53:29.613Z,3.93
2022-09-21T02:54:29.854Z,4.04
2022-09-21T02:55:29.579Z,3.93
2022-09-21T02:56:30.822Z,3.97
2022-09-21T02:57:29.800Z,3.94
2022-09-21T02:58:29.832Z,4.04
2022-09-21T02:59:29.790Z,4.1
2022-09-21T03:00:29.727Z,4.11
2022-09-21T03:01:29.781Z,4.15
2022-09-21T03:02:29.712Z,4.1
2022-09-21T03:03:29.489Z,4.1
2022-09-21T03:04:29.423Z,4.14
2022-09-21T03:05:29.752Z,4.1
2022-09-21T03:06:29.652Z,4.15
2022-09-21T03:07:29.629Z,4.12
2022-09-21T03:08:29.360Z,4.15
2022-09-21T03:09:29.087Z,4.18
2022-09-21T03:10:29.585Z,4.17
2022-09-21T03:11:29.570Z,4.18
2022-09-21T03:12:29.551Z,4.21
2022-09-21T03:13:29.277Z,4.18
2022-09-21T03:14:29.299Z,4.3
2022-09-21T03:15:29.529Z,4.28
2022-09-21T03:16:29.478Z,4.3
2022-09-21T03:17:29.465Z,4.33
2022-09-21T03:18:29.189Z,4.44
2022-09-21T03:19:29.422Z,4.38
2022-09-21T03:20:29.409Z,4.46
2022-09-21T03:21:29.397Z,4.47
2022-09-21T03:22:28.865Z,4.46
2022-09-21T03:23:29.104Z,4.51
2022-09-21T03:24:29.089Z,4.4
2022-09-21T03:25:28.817Z,4.53
2022-09-21T03:26:29.055Z,4.48
2022-09-21T03:27:29.034Z,4.56
2022-09-21T03:28:28.779Z,4.54
2022-09-21T03:29:29.003Z,4.54
2022-09-21T03:30:29.294Z,4.58
2022-09-21T03:31:29.214Z,4.58
2022-09-21T03:32:28.957Z,4.53
2022-09-21T03:49:25.435Z,4.22
2022-09-21T03:50:25.349Z,4.18
2022-09-21T03:51:25.329Z,4.15
2022-09-21T03:52:25.305Z,4.11
2022-09-21T03:53:25.289Z,4.04
2022-09-21T03:54:25.013Z,4
2022-09-21T03:55:24.997Z,3.96
2022-09-21T03:56:24.975Z,3.9
2022-09-21T03:57:24.958Z,3.89
2022-09-21T03:58:24.939Z,3.86
2022-09-21T03:59:24.674Z,3.82
2022-09-21T04:00:24.652Z,3.82
2022-09-21T04:01:24.924Z,3.66
2022-09-21T04:02:25.071Z,3.64
2022-09-21T04:03:24.868Z,3.67
2022-09-21T04:04:24.584Z,3.63
2022-09-21T04:05:25.149Z,3.6
2022-09-21T04:06:24.800Z,3.64
2022-09-21T04:07:24.784Z,3.57
2022-09-21T04:08:24.758Z,3.57
2022-09-21T04:09:24.747Z,3.51
2022-09-21T04:10:24.738Z,3.57
2022-09-21T04:11:24.713Z,3.54
2022-09-21T04:12:24.442Z,3.51
2022-09-21T04:13:24.423Z,3.51
2022-09-21T04:14:24.917Z,3.54
2022-09-21T04:15:24.897Z,3.53
2022-09-21T04:16:24.877Z,3.51
2022-09-21T04:17:24.351Z,3.51
2022-09-21T04:18:24.533Z,3.51
2022-09-21T04:19:24.843Z,3.54
2022-09-21T04:20:24.561Z,3.51
2022-09-21T04:21:24.952Z,3.54
2022-09-21T04:22:24.527Z,3.51
2022-09-21T04:23:24.510Z,3.4
2022-09-21T04:24:24.499Z,3.54
2022-09-21T04:25:24.474Z,3.49
2022-09-21T04:26:24.460Z,3.46
2022-09-21T04:27:24.438Z,3.49
2022-09-21T04:28:24.428Z,3.49
2022-09-21T04:29:24.404Z,3.42
2022-09-21T04:30:24.639Z,3.42
2022-09-21T04:31:24.631Z,3.4
2022-09-21T04:32:24.093Z,3.42
2022-09-21T04:33:24.337Z,3.34
2022-09-21T04:34:24.314Z,3.37
2022-09-21T04:35:24.560Z,3.3
2022-09-21T04:36:24.542Z,3.32
2022-09-21T04:37:24.679Z,3.35
2022-09-21T04:38:24.257Z,3.35
2022-09-21T04:39:24.233Z,3.35
2022-09-21T04:40:24.634Z,3.37
2022-09-21T04:41:24.199Z,3.39
2022-09-21T04:42:24.178Z,3.46
2022-09-21T04:43:27.212Z,3.42
2022-09-21T04:44:24.168Z,3.43
2022-09-21T04:45:23.874Z,3.46
2022-09-21T04:46:24.250Z,3.42
2022-09-21T04:47:24.096Z,3.43
2022-09-21T04:48:24.077Z,3.42
2022-09-21T04:49:24.061Z,3.4
2022-09-21T04:50:24.053Z,3.46
2022-09-21T04:51:24.281Z,3.48
2022-09-21T04:52:24.012Z,3.43
2022-09-21T04:53:24.331Z,3.43
2022-09-21T04:54:24.231Z,3.42
2022-09-21T04:55:24.210Z,3.42
2022-09-21T04:56:23.691Z,3.4
2022-09-21T04:57:24.178Z,3.48
2022-09-21T04:58:28.866Z,3.46
2022-09-21T04:59:24.142Z,3.42
2022-09-21T05:00:24.127Z,3.37
2022-09-21T05:01:24.050Z,3.46
2022-09-21T05:02:23.596Z,3.46
2022-09-21T05:03:23.950Z,3.48
2022-09-21T05:04:23.809Z,3.43
2022-09-21T05:05:24.040Z,3.39
2022-09-21T05:06:23.772Z,3.37
2022-09-21T05:07:23.752Z,3.3
2022-09-21T05:08:23.994Z,3.32
2022-09-21T05:09:24.042Z,3.26
2022-09-21T05:10:23.963Z,3.27
2022-09-21T05:11:23.694Z,3.35
2022-09-21T05:12:23.421Z,3.2
2022-09-21T05:13:24.222Z,3.2
2022-09-21T05:14:23.634Z,3.27
2022-09-21T05:15:23.407Z,3.19
2022-09-21T05:16:23.855Z,3.21
2022-09-21T05:17:23.324Z,3.19
2022-09-21T05:18:23.317Z,3.21
2022-09-21T05:19:23.545Z,3.19
2022-09-21T05:20:23.847Z,3.2
2022-09-21T05:21:23.526Z,3.23
2022-09-21T05:22:23.751Z,3.24
2022-09-21T05:23:23.225Z,3.19
2022-09-21T05:24:23.207Z,3.37
2022-09-21T05:25:23.894Z,3.23
2022-09-21T05:26:23.433Z,3.3
2022-09-21T05:27:23.413Z,3.3
2022-09-21T05:28:23.396Z,3.35
2022-09-21T05:29:23.657Z,3.35
2022-09-21T05:30:23.126Z,3.42
2022-09-21T05:31:23.613Z,3.42
2022-09-21T05:32:23.074Z,3.39
2022-09-21T05:33:23.310Z,3.48
2022-09-21T05:34:23.553Z,3.54
2022-09-21T05:35:23.533Z,3.48
2022-09-21T05:36:23.002Z,3.58
2022-09-21T05:37:23.244Z,3.64
2022-09-21T05:38:23.495Z,3.61
2022-09-21T05:39:23.459Z,3.72
2022-09-21T05:40:23.113Z,3.75
2022-09-21T05:41:23.506Z,3.76
2022-09-21T05:42:22.900Z,3.85
2022-09-21T05:43:22.883Z,3.78
2022-09-21T05:44:22.867Z,3.82
2022-09-21T05:45:22.888Z,3.9
2022-09-21T05:46:23.237Z,3.9
2022-09-21T05:47:23.073Z,3.92
2022-09-21T05:48:23.311Z,3.9
2022-09-21T05:49:23.292Z,3.93
2022-09-21T05:50:22.768Z,4
2022-09-21T05:51:23.006Z,3.94
2022-09-21T05:52:22.731Z,3.92
2022-09-21T05:53:22.980Z,4.04
2022-09-21T05:54:23.209Z,3.96
2022-09-21T05:55:22.681Z,3.92
2022-09-21T05:56:23.172Z,4.07
2022-09-21T05:57:25.413Z,4.04
2022-09-21T05:58:23.140Z,4.15
2022-09-21T05:59:22.615Z,4.15
2022-09-21T06:00:22.852Z,4.11
2022-09-21T06:01:23.046Z,4.2
2022-09-21T06:02:23.004Z,4.14
2022-09-21T06:03:22.802Z,4.26
2022-09-21T06:04:22.792Z,4.18
2022-09-21T06:05:23.021Z,4.33
2022-09-21T06:06:22.494Z,4.32
2022-09-21T06:07:22.483Z,4.33
2022-09-21T06:08:22.715Z,4.32
2022-09-21T06:09:22.466Z,4.38
2022-09-21T06:10:22.937Z,4.4
2022-09-21T06:11:22.668Z,4.44
2022-09-21T06:12:22.907Z,4.46
2022-09-21T06:13:22.961Z,4.53
2022-09-21T06:14:22.873Z,4.51
2022-09-21T06:15:22.354Z,4.64
2022-09-21T06:16:22.706Z,4.58
2022-09-21T06:17:22.570Z,4.57
2022-09-21T06:18:22.994Z,4.46
2022-09-21T06:19:22.790Z,4.58
2022-09-21T06:20:22.786Z,4.61
2022-09-21T06:21:22.507Z,4.68
2022-09-21T06:22:22.482Z,4.68
2022-09-21T06:23:22.725Z,4.72
2022-09-21T06:24:24.152Z,4.87
2022-09-21T06:25:22.610Z,4.85
2022-09-21T06:26:22.422Z,4.92
2022-09-21T06:27:22.403Z,5.05
2022-09-21T06:28:22.385Z,5.1
2022-09-21T06:29:22.801Z,5.2
2022-09-21T06:30:22.098Z,5.23
2022-09-21T06:31:22.336Z,5.37
2022-09-21T06:32:25.523Z,5.39
2022-09-21T06:33:22.303Z,5.51
2022-09-21T06:34:22.291Z,5.66
2022-09-21T06:35:22.273Z,5.72
2022-09-21T06:36:22.273Z,5.78
2022-09-21T06:37:22.237Z,5.89
2022-09-21T06:38:22.480Z,5.87
2022-09-21T06:39:22.469Z,6.02
2022-09-21T06:40:23.596Z,6
2022-09-21T06:41:25.683Z,6.09
2022-09-21T06:42:21.909Z,6.17
2022-09-21T06:43:22.184Z,6.37
2022-09-21T06:44:22.130Z,6.37
2022-09-21T06:45:22.438Z,6.55
2022-09-21T06:46:22.234Z,6.55
2022-09-21T06:47:22.097Z,6.62
2022-09-21T06:48:22.322Z,6.64
2022-09-21T06:49:21.790Z,6.75
2022-09-21T06:50:22.033Z,6.82
2022-09-21T06:51:21.763Z,6.82
2022-09-21T06:52:22.014Z,6.9
2022-09-21T06:53:21.733Z,6.8
2022-09-21T06:54:21.979Z,6.83
2022-09-21T06:55:21.700Z,6.88
2022-09-21T06:56:21.950Z,6.98
2022-09-21T06:57:22.181Z,7.04
2022-09-21T06:58:21.916Z,7.12
2022-09-21T06:59:21.912Z,7.21
2022-09-21T07:00:21.634Z,7.27
2022-09-21T07:01:22.654Z,7.27
2022-09-21T07:02:22.037Z,7.29
2022-09-21T07:03:21.846Z,7.41
2022-09-21T07:04:27.715Z,7.51
2022-09-21T07:05:21.807Z,7.55
2022-09-21T07:06:22.051Z,7.55
2022-09-21T07:07:22.034Z,7.67
2022-09-21T07:10:26.065Z,7.67
2022-09-21T07:11:25.640Z,7.61
2022-09-21T07:12:25.642Z,7.59
2022-09-21T07:13:25.873Z,7.54
2022-09-21T07:14:25.855Z,7.63
2022-09-21T07:15:25.582Z,7.51
2022-09-21T07:16:26.208Z,7.51
2022-09-21T07:17:25.551Z,7.51
2022-09-21T07:18:25.548Z,7.55
2022-09-21T07:19:25.777Z,7.56
2022-09-21T07:20:25.772Z,7.61
2022-09-21T07:21:25.745Z,7.67
2022-09-21T07:22:25.481Z,7.78
2022-09-21T07:23:25.467Z,7.85
2022-09-21T07:24:25.470Z,7.99
2022-09-21T07:25:25.439Z,8.14
2022-09-21T07:26:25.421Z,8.09
2022-09-21T07:27:25.675Z,8.31
2022-09-21T07:28:25.397Z,8.36
2022-09-21T07:29:25.382Z,8.49
2022-09-21T07:30:25.115Z,8.62
2022-09-21T07:31:25.530Z,8.61
2022-09-21T07:32:25.667Z,8.64
2022-09-21T07:33:25.329Z,8.65
2022-09-21T07:34:25.320Z,8.62
2022-09-21T07:35:25.304Z,8.6
2022-09-21T07:36:25.545Z,8.53
2022-09-21T07:37:25.272Z,8.52
2022-09-21T07:38:25.004Z,8.54
2022-09-21T07:39:25.241Z,8.54
2022-09-21T07:40:29.791Z,8.47
2022-09-21T07:41:25.476Z,8.43
2022-09-21T07:42:25.222Z,8.43
2022-09-21T07:43:25.185Z,8.32
2022-09-21T07:44:25.178Z,8.34
2022-09-21T07:45:25.327Z,8.34
2022-09-21T07:46:25.421Z,8.25
2022-09-21T07:47:25.136Z,8.31
2022-09-21T07:48:25.507Z,8.26
2022-09-21T07:49:25.106Z,8.25
2022-09-21T07:50:25.468Z,8.34
2022-09-21T07:51:25.080Z,8.36
2022-09-21T07:52:24.810Z,8.32
2022-09-21T07:53:25.054Z,8.47
2022-09-21T07:54:25.037Z,8.44
2022-09-21T07:55:24.769Z,8.46
2022-09-21T07:56:25.037Z,8.44
2022-09-21T07:57:25.250Z,8.47
2022-09-21T07:58:25.242Z,8.47
2022-09-21T07:59:25.223Z,8.58
2022-09-21T08:00:25.090Z,8.52
2022-09-21T08:01:25.312Z,8.61
2022-09-21T08:02:25.220Z,8.69
2022-09-21T08:03:24.921Z,8.74
2022-09-21T08:04:25.287Z,8.71
2022-09-21T08:05:24.888Z,8.77
2022-09-21T08:06:25.134Z,8.85
2022-09-21T08:07:25.118Z,8.83
2022-09-21T08:08:24.856Z,8.83
2022-09-21T08:09:25.116Z,8.8
2022-09-21T08:10:24.574Z,8.72
2022-09-21T08:11:24.812Z,8.76
2022-09-21T08:12:24.795Z,8.77
2022-09-21T08:13:24.785Z,8.74
2022-09-21T08:14:30.795Z,8.77
2022-09-21T08:15:52.901Z,8.89
2022-09-21T08:16:25.048Z,8.79
2022-09-21T08:17:24.729Z,8.98
2022-09-21T08:18:24.714Z,8.94
2022-09-21T08:19:24.707Z,9.09
2022-09-21T08:20:25.315Z,9.41
2022-09-21T08:21:24.696Z,9.53
2022-09-21T08:22:24.918Z,9.67
2022-09-21T08:23:24.916Z,9.8
2022-09-21T08:24:24.789Z,9.9
2022-09-21T08:25:24.372Z,10
2022-09-21T08:26:24.612Z,10.1
2022-09-21T08:27:27.599Z,10.13
2022-09-21T08:28:24.590Z,10.17
2022-09-21T08:29:24.830Z,10.11
2022-09-21T08:30:24.304Z,10.11
2022-09-21T08:31:24.808Z,10.03
2022-09-21T08:32:54.285Z,10.08
2022-09-21T08:33:29.970Z,10.07
2022-09-21T08:34:24.511Z,10.03
2022-09-21T08:35:24.500Z,10.08
2022-09-21T08:36:24.824Z,10.1
2022-09-21T08:37:24.484Z,10.03
2022-09-21T08:38:24.457Z,10.05
2022-09-21T08:39:24.704Z,10.13
2022-09-21T08:40:24.720Z,10.14
2022-09-21T08:41:24.176Z,10.23
2022-09-21T08:42:24.661Z,10.23
2022-09-21T08:43:24.147Z,10.26
2022-09-21T08:44:24.184Z,10.14
2022-09-21T08:45:24.630Z,10.03
2022-09-21T08:46:24.511Z,10.07
2022-09-21T08:47:24.352Z,9.98
2022-09-21T08:48:36.764Z,9.99
2022-09-21T08:49:24.327Z,9.9
2022-09-21T08:50:24.311Z,9.98
2022-09-21T08:51:24.257Z,9.93
2022-09-21T08:52:24.637Z,10.02
2022-09-21T08:53:24.469Z,10.02
2022-09-21T08:54:24.260Z,10.13
2022-09-21T08:55:24.251Z,10.23
2022-09-21T08:56:32.949Z,10.29
2022-09-21T08:57:24.225Z,10.28
2022-09-21T08:58:24.221Z,10.26
2022-09-21T08:59:24.456Z,10.41
2022-09-21T09:00:24.595Z,10.54
2022-09-21T09:01:24.433Z,10.65
2022-09-21T09:02:24.456Z,10.7
2022-09-21T09:03:24.157Z,10.91
2022-09-21T09:04:24.398Z,10.94
2022-09-21T09:05:24.139Z,11.1
2022-09-21T09:06:29.353Z,11.13
2022-09-21T09:07:24.112Z,11.27
2022-09-21T09:08:24.435Z,11.42
2022-09-21T09:09:24.337Z,11.52
2022-09-21T09:10:24.143Z,11.68
2022-09-21T09:11:24.060Z,11.81
2022-09-21T09:12:24.315Z,11.91
2022-09-21T09:13:24.291Z,12.04
2022-09-21T09:14:24.027Z,12.08
2022-09-21T09:15:24.266Z,12.1
2022-09-21T09:16:23.954Z,12.15
2022-09-21T09:17:23.999Z,12.31
2022-09-21T09:18:24.235Z,12.29
2022-09-21T09:19:24.225Z,12.29
2022-09-21T09:20:24.062Z,12.34
2022-09-21T09:21:35.034Z,12.41
2022-09-21T09:22:24.214Z,12.52
2022-09-21T09:23:24.176Z,12.47
2022-09-21T09:24:24.243Z,12.56
2022-09-21T09:25:23.897Z,12.65
2022-09-21T09:26:23.630Z,12.88
2022-09-21T09:27:23.884Z,12.94
2022-09-21T09:28:24.129Z,12.94
2022-09-21T09:29:23.850Z,13.01
2022-09-21T09:30:24.235Z,13.03
2022-09-21T09:31:24.151Z,12.94
2022-09-21T09:32:24.080Z,12.91
2022-09-21T09:33:24.071Z,12.92
2022-09-21T09:34:23.805Z,12.96
2022-09-21T09:35:24.046Z,12.81
2022-09-21T09:37:00.441Z,12.73
2022-09-21T09:37:24.026Z,12.66
2022-09-21T09:38:23.762Z,12.62
2022-09-21T09:39:23.752Z,12.61
2022-09-21T09:40:24.370Z,12.73
2022-09-21T09:41:23.758Z,12.86
2022-09-21T09:42:23.719Z,12.88
2022-09-21T09:43:23.730Z,13.02
2022-09-21T09:44:23.450Z,13.07
2022-09-21T09:45:28.657Z,13.24
2022-09-21T09:46:23.907Z,13.21
2022-09-21T09:47:23.922Z,13.29
2022-09-21T09:48:23.408Z,13.47
2022-09-21T09:49:23.916Z,13.6
2022-09-21T09:50:23.737Z,13.88
2022-09-21T09:51:23.376Z,13.97
2022-09-21T09:52:23.869Z,14.06
2022-09-21T09:53:23.881Z,14.08
2022-09-21T09:54:23.859Z,14.11
2022-09-21T09:55:23.335Z,14.06
2022-09-21T09:56:23.913Z,13.87
2022-09-21T09:57:23.826Z,13.58
2022-09-21T09:58:23.571Z,13.45
2022-09-21T09:59:23.811Z,13.35
2022-09-21T10:00:23.891Z,13.11
2022-09-21T10:01:23.738Z,12.92
2022-09-21T10:02:23.517Z,12.89
2022-09-21T10:03:23.514Z,12.95
2022-09-21T10:04:23.671Z,12.83
2022-09-21T10:05:23.748Z,12.83
2022-09-21T10:06:23.483Z,12.95
2022-09-21T10:07:23.728Z,13.17
2022-09-21T10:08:23.720Z,13.31
2022-09-21T10:09:23.702Z,13.32
2022-09-21T10:10:23.784Z,13.29
2022-09-21T10:11:23.428Z,13.17
2022-09-21T10:12:23.762Z,13.09
2022-09-21T10:13:23.170Z,13.02
2022-09-21T10:14:23.144Z,12.96
2022-09-21T10:15:23.652Z,13.07
2022-09-21T10:16:23.993Z,13.13
2022-09-21T10:17:23.631Z,13.1
2022-09-21T10:18:23.373Z,13.02
2022-09-21T10:19:23.605Z,12.95
2022-09-21T10:20:23.475Z,12.92
2022-09-21T10:21:23.360Z,12.92
2022-09-21T10:22:23.324Z,12.95
2022-09-21T10:23:23.570Z,12.95
2022-09-21T10:24:23.301Z,12.95
2022-09-21T10:25:23.549Z,13.11
2022-09-21T10:26:23.289Z,13.28
2022-09-21T10:27:23.536Z,13.5
2022-09-21T10:28:23.616Z,13.6
2022-09-21T10:29:23.256Z,13.87
2022-09-21T10:30:23.304Z,14.09
2022-09-21T10:31:23.926Z,14.26
2022-09-21T10:32:23.224Z,14.45
2022-09-21T10:33:23.476Z,14.48
2022-09-21T10:34:23.208Z,14.48
2022-09-21T10:35:23.453Z,14.53
2022-09-21T10:36:23.197Z,14.46
2022-09-21T10:37:22.923Z,14.48
2022-09-21T10:38:27.213Z,14.31
2022-09-21T10:39:23.178Z,14.24
2022-09-21T10:40:23.869Z,14.06
2022-09-21T10:41:23.402Z,13.86
2022-09-21T10:42:23.152Z,13.72
2022-09-21T10:43:24.110Z,13.58
2022-09-21T10:44:23.458Z,13.6
2022-09-21T10:45:23.106Z,13.54
2022-09-21T10:46:23.594Z,13.51
2022-09-21T10:47:23.092Z,13.53
2022-09-21T10:48:23.343Z,13.44
2022-09-21T10:49:23.328Z,13.37
2022-09-21T10:50:23.058Z,13.37
2022-09-21T10:51:23.304Z,13.29
2022-09-21T10:52:23.302Z,13.31
2022-09-21T10:53:23.034Z,13.25
2022-09-21T10:54:23.280Z,13.06
2022-09-21T10:55:22.760Z,13.09
2022-09-21T10:56:23.475Z,12.96
2022-09-21T10:57:22.998Z,12.94
2022-09-21T10:58:22.735Z,12.84
2022-09-21T10:59:23.264Z,12.89
2022-09-21T11:00:23.367Z,12.94
2022-09-21T11:01:23.545Z,12.88
2022-09-21T11:02:23.370Z,12.91
2022-09-21T11:03:22.685Z,12.96
2022-09-21T11:04:22.925Z,12.98
2022-09-21T11:05:23.183Z,12.96
2022-09-21T11:06:22.658Z,13.1
2022-09-21T11:07:22.915Z,13.07
2022-09-21T11:08:22.897Z,13.14
2022-09-21T11:09:22.625Z,13.25
2022-09-21T11:10:22.951Z,13.37
2022-09-21T11:11:23.138Z,13.28
2022-09-21T11:12:23.110Z,13.45
2022-09-21T11:13:22.589Z,13.55
2022-09-21T11:14:23.098Z,13.76
2022-09-21T11:15:23.084Z,14.01
2022-09-21T11:16:23.418Z,14.16
2022-09-21T11:17:22.549Z,14.24
2022-09-21T11:18:22.539Z,14.21
2022-09-21T11:19:23.047Z,14.15
2022-09-21T11:20:22.623Z,14.13
2022-09-21T11:21:23.029Z,13.95
2022-09-21T11:22:22.760Z,13.81
2022-09-21T11:23:22.749Z,13.62
2022-09-21T11:24:22.747Z,13.54
2022-09-21T11:25:22.985Z,13.47
2022-09-21T11:26:22.974Z,13.45
2022-09-21T11:27:22.967Z,13.42
2022-09-21T11:28:22.970Z,13.45
2022-09-21T11:29:23.148Z,13.42
2022-09-21T11:30:22.623Z,13.48
2022-09-21T11:31:22.609Z,13.42
2022-09-21T11:32:22.995Z,13.51
2022-09-21T11:33:22.660Z,13.63
2022-09-21T11:34:22.389Z,13.84
2022-09-21T11:35:22.638Z,13.88
2022-09-21T11:36:22.374Z,14.01
2022-09-21T11:37:22.878Z,14.01
2022-09-21T11:38:22.862Z,14.19
2022-09-21T11:39:22.602Z,14.15
2022-09-21T11:40:22.853Z,14.03
2022-09-21T11:41:22.582Z,14.09
2022-09-21T11:42:22.323Z,14.08
2022-09-21T11:43:26.461Z,14.06
2022-09-21T11:44:24.116Z,14.08
2022-09-21T11:45:22.292Z,14.21
2022-09-21T11:46:22.772Z,14.27
2022-09-21T11:47:22.795Z,14.42
2022-09-21T11:48:22.847Z,14.34
2022-09-21T11:49:22.781Z,14.19
2022-09-21T11:50:38.233Z,13.99
2022-09-21T11:51:22.533Z,13.91
2022-09-21T11:52:22.745Z,13.91
2022-09-21T11:53:22.524Z,13.81
2022-09-21T11:54:22.744Z,13.81
2022-09-21T11:55:22.717Z,13.78
2022-09-21T11:56:22.451Z,13.68
2022-09-21T11:57:22.447Z,13.7
2022-09-21T11:58:22.453Z,13.73
2022-09-21T11:59:22.170Z,13.66
2022-09-21T12:00:22.458Z,13.62
2022-09-21T12:01:22.684Z,13.6
2022-09-21T12:02:23.123Z,13.6
2022-09-21T12:03:22.393Z,13.51
2022-09-21T12:04:22.726Z,13.53
2022-09-21T12:05:22.372Z,13.53
2022-09-21T12:06:22.619Z,13.54
2022-09-21T12:07:22.611Z,13.6
2022-09-21T12:08:22.098Z,13.69
2022-09-21T12:09:22.336Z,13.57
2022-09-21T12:10:22.337Z,13.58
2022-09-21T12:11:22.321Z,13.7
2022-09-21T12:12:22.308Z,13.75
2022-09-21T12:13:22.298Z,13.93
2022-09-21T12:14:22.034Z,13.9
2022-09-21T12:15:22.581Z,13.95
2022-09-21T12:16:22.457Z,14.01
2022-09-21T12:17:22.285Z,13.97
2022-09-21T12:18:22.516Z,13.95
2022-09-21T12:19:21.992Z,13.97
2022-09-21T12:20:22.572Z,13.95
2022-09-21T12:21:21.972Z,14.02
2022-09-21T12:22:22.476Z,14.09
2022-09-21T12:23:22.211Z,14.11
2022-09-21T12:24:22.199Z,14.05
2022-09-21T12:25:22.452Z,14.19
2022-09-21T12:26:22.438Z,14.31
2022-09-21T12:27:22.428Z,14.33
2022-09-21T12:28:22.167Z,14.44
2022-09-21T12:29:22.413Z,14.52
2022-09-21T12:30:22.453Z,14.59
2022-09-21T12:31:22.446Z,14.6
2022-09-21T12:32:22.140Z,14.77
2022-09-21T12:33:22.387Z,14.86
2022-09-21T12:34:22.118Z,14.89
2022-09-21T12:35:22.105Z,14.86
2022-09-21T12:36:22.451Z,14.95
2022-09-21T12:37:22.092Z,15.05
2022-09-21T12:38:22.494Z,15.05
2022-09-21T12:39:22.328Z,15.23
2022-09-21T12:40:22.233Z,15.3
2022-09-21T12:41:22.072Z,15.34
2022-09-21T12:42:22.050Z,15.33
2022-09-21T12:43:22.063Z,15.25
2022-09-21T12:44:22.296Z,15.13
2022-09-21T12:45:21.771Z,15
2022-09-21T12:46:22.358Z,14.87
2022-09-21T12:47:21.755Z,14.87
2022-09-21T12:48:21.999Z,14.89
2022-09-21T12:49:22.243Z,14.82
2022-09-21T12:50:22.240Z,14.86
2022-09-21T12:51:21.982Z,14.85
2022-09-21T12:52:22.505Z,14.86
2022-09-21T12:53:21.709Z,14.77
2022-09-21T12:54:22.213Z,14.66
2022-09-21T12:55:22.400Z,14.67
2022-09-21T12:56:21.932Z,14.7
2022-09-21T12:58:15.756Z,14.63
2022-09-21T12:58:25.505Z,14.69
2022-09-21T12:59:25.496Z,14.7
2022-09-21T13:00:25.500Z,14.69
2022-09-21T13:01:25.955Z,14.63
2022-09-21T13:02:25.909Z,14.66
2022-09-21T13:03:25.465Z,14.74
2022-09-21T13:04:25.726Z,14.67
2022-09-21T13:05:25.444Z,14.74
2022-09-21T13:06:25.696Z,14.82
2022-09-21T13:07:25.826Z,14.86
2022-09-21T13:08:25.418Z,14.95
2022-09-21T13:09:25.667Z,14.95
2022-09-21T13:10:25.406Z,14.95
2022-09-21T13:11:25.651Z,14.83
2022-09-21T13:12:25.390Z,14.86
2022-09-21T13:13:25.377Z,14.83
2022-09-21T13:14:25.112Z,14.87
2022-09-21T13:15:25.614Z,14.82
2022-09-21T13:16:25.529Z,14.69
2022-09-21T13:17:25.097Z,14.63
2022-09-21T13:18:25.085Z,14.46
2022-09-21T13:19:25.329Z,14.45
2022-09-21T13:20:25.575Z,14.53
2022-09-21T13:21:25.316Z,14.49
2022-09-21T13:22:25.569Z,14.44
2022-09-21T13:23:25.637Z,14.46
2022-09-21T13:24:25.298Z,14.49
2022-09-21T13:25:25.536Z,14.44
2022-09-21T13:26:29.213Z,14.48
2022-09-21T13:27:25.264Z,14.57
2022-09-21T13:28:24.999Z,14.48
2022-09-21T13:29:25.256Z,14.36
2022-09-21T13:30:25.241Z,14.38